sensor_id;sensor_type;location;lat;lon;timestamp;pressure;altitude;pressure_sealevel;temperature;humidity
7264;BME280;3673;52.480;13.348;2022-08-19T00:00:38;100515.91;;;27.30;59.23
7264;BME280;3673;52.480;13.348;2022-08-19T00:03:06;100521.09;;;26.84;60.38
7264;BME280;3673;52.480;13.348;2022-08-19T00:05:33;100522.03;;;26.20;62.41
7264;BME280;3673;52.480;13.348;2022-08-19T00:08:01;100509.41;;;26.35;62.69
7264;BME280;3673;52.480;13.348;2022-08-19T00:10:29;100493.72;;;26.41;62.26
7264;BME280;3673;52.480;13.348;2022-08-19T00:12:56;100491.31;;;26.62;61.64
7264;BME280;3673;52.480;13.348;2022-08-19T00:15:23;100503.34;;;26.69;61.62
7264;BME280;3673;52.480;13.348;2022-08-19T00:17:53;100513.53;;;26.77;61.09
7264;BME280;3673;52.480;13.348;2022-08-19T00:20:21;100496.47;;;26.90;60.16
7264;BME280;3673;52.480;13.348;2022-08-19T00:22:49;100496.03;;;26.96;59.61
7264;BME280;3673;52.480;13.348;2022-08-19T00:25:17;100508.34;;;27.11;59.30
7264;BME280;3673;52.480;13.348;2022-08-19T00:27:45;100508.38;;;26.99;59.42
7264;BME280;3673;52.480;13.348;2022-08-19T00:30:13;100518.00;;;27.14;59.26
7264;BME280;3673;52.480;13.348;2022-08-19T00:32:40;100518.16;;;27.00;59.92
7264;BME280;3673;52.480;13.348;2022-08-19T00:35:08;100520.53;;;26.67;61.04
7264;BME280;3673;52.480;13.348;2022-08-19T00:37:37;100511.25;;;27.08;59.45
7264;BME280;3673;52.480;13.348;2022-08-19T00:40:11;100493.03;;;26.76;59.77
7264;BME280;3673;52.480;13.348;2022-08-19T00:42:38;100499.66;;;27.08;59.52
7264;BME280;3673;52.480;13.348;2022-08-19T00:45:13;100476.41;;;27.20;58.86
7264;BME280;3673;52.480;13.348;2022-08-19T00:47:42;100479.94;;;27.20;58.62
7264;BME280;3673;52.480;13.348;2022-08-19T00:50:11;100483.03;;;27.27;58.43
7264;BME280;3673;52.480;13.348;2022-08-19T00:52:43;100479.94;;;27.20;58.79
7264;BME280;3673;52.480;13.348;2022-08-19T00:55:22;100483.59;;;27.19;59.08
7264;BME280;3673;52.480;13.348;2022-08-19T00:57:55;100485.88;;;27.12;59.33
7264;BME280;3673;52.480;13.348;2022-08-19T01:00:27;100490.00;;;26.93;60.13
7264;BME280;3673;52.480;13.348;2022-08-19T01:02:56;100490.78;;;26.95;60.32
7264;BME280;3673;52.480;13.348;2022-08-19T01:05:27;100491.97;;;26.78;60.63
7264;BME280;3673;52.480;13.348;2022-08-19T01:07:55;100484.13;;;26.75;60.76
7264;BME280;3673;52.480;13.348;2022-08-19T01:10:25;100502.47;;;26.94;60.90
7264;BME280;3673;52.480;13.348;2022-08-19T01:12:55;100502.94;;;26.75;60.70
7264;BME280;3673;52.480;13.348;2022-08-19T01:15:30;100503.66;;;26.90;60.86
7264;BME280;3673;52.480;13.348;2022-08-19T01:18:01;100500.31;;;26.99;61.01
7264;BME280;3673;52.480;13.348;2022-08-19T01:20:30;100506.53;;;26.99;60.59
7264;BME280;3673;52.480;13.348;2022-08-19T01:23:02;100509.16;;;26.88;61.36
7264;BME280;3673;52.480;13.348;2022-08-19T01:25:33;100508.84;;;26.68;61.51
7264;BME280;3673;52.480;13.348;2022-08-19T01:28:03;100505.84;;;26.85;60.95
7264;BME280;3673;52.480;13.348;2022-08-19T01:30:33;100505.41;;;26.78;61.55
7264;BME280;3673;52.480;13.348;2022-08-19T01:33:02;100509.25;;;26.87;60.64
7264;BME280;3673;52.480;13.348;2022-08-19T01:35:31;100522.91;;;26.84;60.81
7264;BME280;3673;52.480;13.348;2022-08-19T01:38:04;100515.94;;;26.81;60.93
7264;BME280;3673;52.480;13.348;2022-08-19T01:40:36;100516.44;;;26.74;61.61
7264;BME280;3673;52.480;13.348;2022-08-19T01:43:04;100511.31;;;26.58;62.35
7264;BME280;3673;52.480;13.348;2022-08-19T01:45:33;100515.63;;;26.48;63.55
7264;BME280;3673;52.480;13.348;2022-08-19T01:48:01;100510.69;;;26.42;64.23
7264;BME280;3673;52.480;13.348;2022-08-19T01:50:30;100517.97;;;26.27;64.60
7264;BME280;3673;52.480;13.348;2022-08-19T01:52:57;100524.44;;;25.85;65.49
7264;BME280;3673;52.480;13.348;2022-08-19T01:55:27;100532.94;;;25.65;65.93
7264;BME280;3673;52.480;13.348;2022-08-19T01:57:57;100543.75;;;26.03;65.38
7264;BME280;3673;52.480;13.348;2022-08-19T02:00:30;100543.50;;;25.54;67.56
7264;BME280;3673;52.480;13.348;2022-08-19T02:02:59;100546.28;;;25.52;67.58
7264;BME280;3673;52.480;13.348;2022-08-19T02:05:26;100545.13;;;25.56;67.73
7264;BME280;3673;52.480;13.348;2022-08-19T02:07:55;100533.66;;;25.40;67.71
7264;BME280;3673;52.480;13.348;2022-08-19T02:10:22;100503.50;;;25.24;69.04
7264;BME280;3673;52.480;13.348;2022-08-19T02:12:51;100484.09;;;25.47;68.96
7264;BME280;3673;52.480;13.348;2022-08-19T02:15:19;100466.41;;;25.84;67.76
7264;BME280;3673;52.480;13.348;2022-08-19T02:17:46;100451.50;;;25.41;69.18
7264;BME280;3673;52.480;13.348;2022-08-19T02:20:14;100455.88;;;24.88;70.69
7264;BME280;3673;52.480;13.348;2022-08-19T02:22:42;100438.22;;;24.57;71.86
7264;BME280;3673;52.480;13.348;2022-08-19T02:25:10;100440.41;;;24.65;72.37
7264;BME280;3673;52.480;13.348;2022-08-19T02:27:38;100435.34;;;24.60;72.36
7264;BME280;3673;52.480;13.348;2022-08-19T02:30:13;100435.84;;;25.08;70.61
7264;BME280;3673;52.480;13.348;2022-08-19T02:32:41;100424.75;;;25.53;68.64
7264;BME280;3673;52.480;13.348;2022-08-19T02:35:09;100406.81;;;25.41;68.55
7264;BME280;3673;52.480;13.348;2022-08-19T02:37:36;100416.75;;;25.39;68.39
7264;BME280;3673;52.480;13.348;2022-08-19T02:40:21;100400.91;;;25.49;67.81
7264;BME280;3673;52.480;13.348;2022-08-19T02:42:47;100402.38;;;25.54;67.45
7264;BME280;3673;52.480;13.348;2022-08-19T02:45:16;100396.94;;;25.81;67.13
7264;BME280;3673;52.480;13.348;2022-08-19T02:47:42;100390.59;;;25.82;66.31
7264;BME280;3673;52.480;13.348;2022-08-19T02:50:09;100392.22;;;25.85;66.26
7264;BME280;3673;52.480;13.348;2022-08-19T02:52:36;100411.06;;;25.83;66.24
7264;BME280;3673;52.480;13.348;2022-08-19T02:55:05;100415.06;;;25.90;65.70
7264;BME280;3673;52.480;13.348;2022-08-19T02:57:32;100422.22;;;25.90;65.76
7264;BME280;3673;52.480;13.348;2022-08-19T02:59:59;100406.78;;;26.06;65.06
7264;BME280;3673;52.480;13.348;2022-08-19T03:02:28;100422.88;;;26.06;64.69
7264;BME280;3673;52.480;13.348;2022-08-19T03:04:56;100426.94;;;25.86;65.65
7264;BME280;3673;52.480;13.348;2022-08-19T03:07:22;100420.63;;;25.87;65.47
7264;BME280;3673;52.480;13.348;2022-08-19T03:09:49;100421.16;;;25.80;65.73
7264;BME280;3673;52.480;13.348;2022-08-19T03:12:16;100420.94;;;25.83;65.23
7264;BME280;3673;52.480;13.348;2022-08-19T03:14:43;100427.81;;;25.74;65.82
7264;BME280;3673;52.480;13.348;2022-08-19T03:17:12;100433.16;;;25.87;65.49
7264;BME280;3673;52.480;13.348;2022-08-19T03:19:40;100430.28;;;25.90;65.36
7264;BME280;3673;52.480;13.348;2022-08-19T03:22:08;100426.72;;;25.77;65.96
7264;BME280;3673;52.480;13.348;2022-08-19T03:24:35;100424.34;;;25.72;65.86
7264;BME280;3673;52.480;13.348;2022-08-19T03:27:02;100422.09;;;25.79;65.51
7264;BME280;3673;52.480;13.348;2022-08-19T03:29:31;100419.97;;;25.71;66.43
7264;BME280;3673;52.480;13.348;2022-08-19T03:31:59;100406.88;;;25.79;65.80
7264;BME280;3673;52.480;13.348;2022-08-19T03:34:29;100403.56;;;25.63;66.59
7264;BME280;3673;52.480;13.348;2022-08-19T03:37:03;100416.94;;;25.63;66.39
7264;BME280;3673;52.480;13.348;2022-08-19T03:39:30;100410.28;;;25.56;66.52
7264;BME280;3673;52.480;13.348;2022-08-19T03:41:57;100403.03;;;25.58;66.43
7264;BME280;3673;52.480;13.348;2022-08-19T03:44:25;100403.13;;;25.69;66.28
7264;BME280;3673;52.480;13.348;2022-08-19T03:46:57;100408.47;;;25.69;66.04
7264;BME280;3673;52.480;13.348;2022-08-19T03:49:28;100420.25;;;25.27;67.47
7264;BME280;3673;52.480;13.348;2022-08-19T03:51:58;100419.78;;;25.47;66.97
7264;BME280;3673;52.480;13.348;2022-08-19T03:54:27;100420.69;;;25.60;66.75
7264;BME280;3673;52.480;13.348;2022-08-19T03:56:56;100422.00;;;25.55;66.60
7264;BME280;3673;52.480;13.348;2022-08-19T03:59:28;100408.91;;;25.63;66.35
7264;BME280;3673;52.480;13.348;2022-08-19T04:01:59;100413.19;;;25.66;66.52
7264;BME280;3673;52.480;13.348;2022-08-19T04:04:27;100415.25;;;25.75;65.74
7264;BME280;3673;52.480;13.348;2022-08-19T04:06:54;100419.88;;;25.85;65.45
7264;BME280;3673;52.480;13.348;2022-08-19T04:09:22;100409.34;;;25.82;65.73
7264;BME280;3673;52.480;13.348;2022-08-19T04:11:52;100413.22;;;25.78;66.21
7264;BME280;3673;52.480;13.348;2022-08-19T04:14:24;100420.50;;;25.76;66.11
7264;BME280;3673;52.480;13.348;2022-08-19T04:16:52;100428.44;;;25.65;66.02
7264;BME280;3673;52.480;13.348;2022-08-19T04:19:20;100437.09;;;25.69;66.20
7264;BME280;3673;52.480;13.348;2022-08-19T04:21:49;100434.34;;;25.43;67.24
7264;BME280;3673;52.480;13.348;2022-08-19T04:24:18;100437.41;;;25.51;66.89
7264;BME280;3673;52.480;13.348;2022-08-19T04:26:47;100443.03;;;25.47;66.91
7264;BME280;3673;52.480;13.348;2022-08-19T04:29:17;100441.09;;;25.49;67.00
7264;BME280;3673;52.480;13.348;2022-08-19T04:31:45;100439.75;;;25.56;66.63
7264;BME280;3673;52.480;13.348;2022-08-19T04:34:15;100452.25;;;25.82;65.60
7264;BME280;3673;52.480;13.348;2022-08-19T04:36:44;100440.44;;;25.72;65.94
7264;BME280;3673;52.480;13.348;2022-08-19T04:39:14;100438.16;;;25.66;66.63
7264;BME280;3673;52.480;13.348;2022-08-19T04:41:42;100436.34;;;25.67;66.33
7264;BME280;3673;52.480;13.348;2022-08-19T04:44:27;100425.56;;;25.68;66.07
7264;BME280;3673;52.480;13.348;2022-08-19T04:46:56;100425.63;;;25.67;65.81
7264;BME280;3673;52.480;13.348;2022-08-19T04:49:23;100439.78;;;25.69;65.87
7264;BME280;3673;52.480;13.348;2022-08-19T04:51:52;100437.56;;;25.88;64.75
7264;BME280;3673;52.480;13.348;2022-08-19T04:54:22;100446.22;;;25.79;64.77
7264;BME280;3673;52.480;13.348;2022-08-19T04:56:51;100438.97;;;25.81;65.38
7264;BME280;3673;52.480;13.348;2022-08-19T04:59:19;100439.81;;;25.94;64.61
7264;BME280;3673;52.480;13.348;2022-08-19T05:01:48;100441.34;;;25.98;64.54
7264;BME280;3673;52.480;13.348;2022-08-19T05:04:19;100431.78;;;25.81;64.92
7264;BME280;3673;52.480;13.348;2022-08-19T05:06:47;100428.44;;;25.65;65.15
7264;BME280;3673;52.480;13.348;2022-08-19T05:09:15;100424.59;;;25.94;64.29
7264;BME280;3673;52.480;13.348;2022-08-19T05:11:43;100416.13;;;26.13;63.76
7264;BME280;3673;52.480;13.348;2022-08-19T05:14:11;100416.97;;;26.13;63.31
7264;BME280;3673;52.480;13.348;2022-08-19T05:16:39;100420.63;;;26.12;63.40
7264;BME280;3673;52.480;13.348;2022-08-19T05:19:07;100421.84;;;26.21;63.39
7264;BME280;3673;52.480;13.348;2022-08-19T05:21:51;100416.13;;;26.13;63.98
7264;BME280;3673;52.480;13.348;2022-08-19T05:24:37;100403.88;;;26.09;63.44
7264;BME280;3673;52.480;13.348;2022-08-19T05:27:04;100409.38;;;26.20;62.70
7264;BME280;3673;52.480;13.348;2022-08-19T05:29:32;100403.06;;;26.21;62.90
7264;BME280;3673;52.480;13.348;2022-08-19T05:32:02;100408.75;;;26.17;62.87
7264;BME280;3673;52.480;13.348;2022-08-19T05:34:32;100411.63;;;26.13;63.59
7264;BME280;3673;52.480;13.348;2022-08-19T05:37:00;100412.19;;;26.19;63.59
7264;BME280;3673;52.480;13.348;2022-08-19T05:39:30;100411.97;;;26.34;63.07
7264;BME280;3673;52.480;13.348;2022-08-19T05:42:00;100418.19;;;26.22;63.53
7264;BME280;3673;52.480;13.348;2022-08-19T05:44:30;100418.41;;;26.19;63.46
7264;BME280;3673;52.480;13.348;2022-08-19T05:46:57;100405.59;;;26.10;63.55
7264;BME280;3673;52.480;13.348;2022-08-19T05:49:26;100403.81;;;26.23;62.74
7264;BME280;3673;52.480;13.348;2022-08-19T05:51:55;100404.75;;;26.09;63.56
7264;BME280;3673;52.480;13.348;2022-08-19T05:54:23;100414.50;;;26.36;62.70
7264;BME280;3673;52.480;13.348;2022-08-19T05:56:51;100408.19;;;26.37;62.33
7264;BME280;3673;52.480;13.348;2022-08-19T05:59:20;100427.34;;;26.56;61.76
7264;BME280;3673;52.480;13.348;2022-08-19T06:01:49;100436.31;;;26.44;62.10
7264;BME280;3673;52.480;13.348;2022-08-19T06:04:18;100438.03;;;26.45;62.12
7264;BME280;3673;52.480;13.348;2022-08-19T06:06:46;100437.16;;;26.44;62.36
7264;BME280;3673;52.480;13.348;2022-08-19T06:09:14;100434.34;;;26.46;62.41
7264;BME280;3673;52.480;13.348;2022-08-19T06:11:45;100441.66;;;26.44;62.32
7264;BME280;3673;52.480;13.348;2022-08-19T06:14:19;100432.63;;;26.57;61.82
7264;BME280;3673;52.480;13.348;2022-08-19T06:16:47;100437.41;;;26.78;61.20
7264;BME280;3673;52.480;13.348;2022-08-19T06:19:17;100427.06;;;26.48;62.44
7264;BME280;3673;52.480;13.348;2022-08-19T06:21:46;100416.72;;;26.67;62.06
7264;BME280;3673;52.480;13.348;2022-08-19T06:24:19;100417.50;;;26.56;61.90
7264;BME280;3673;52.480;13.348;2022-08-19T06:26:48;100424.81;;;26.54;61.99
7264;BME280;3673;52.480;13.348;2022-08-19T06:29:17;100436.88;;;26.73;61.69
7264;BME280;3673;52.480;13.348;2022-08-19T06:31:47;100431.31;;;26.63;62.21
7264;BME280;3673;52.480;13.348;2022-08-19T06:34:16;100435.41;;;26.56;61.95
7264;BME280;3673;52.480;13.348;2022-08-19T06:36:46;100440.66;;;26.70;61.69
7264;BME280;3673;52.480;13.348;2022-08-19T06:39:18;100438.41;;;26.64;62.05
7264;BME280;3673;52.480;13.348;2022-08-19T06:41:48;100447.97;;;26.68;61.72
7264;BME280;3673;52.480;13.348;2022-08-19T06:44:16;100451.50;;;26.81;61.45
7264;BME280;3673;52.480;13.348;2022-08-19T06:46:43;100464.81;;;26.83;61.20
7264;BME280;3673;52.480;13.348;2022-08-19T06:49:10;100470.59;;;26.89;61.12
7264;BME280;3673;52.480;13.348;2022-08-19T06:51:39;100478.13;;;26.84;61.10
7264;BME280;3673;52.480;13.348;2022-08-19T06:54:06;100471.81;;;26.85;61.67
7264;BME280;3673;52.480;13.348;2022-08-19T06:56:35;100476.53;;;26.82;60.90
7264;BME280;3673;52.480;13.348;2022-08-19T06:59:05;100480.28;;;26.92;60.64
7264;BME280;3673;52.480;13.348;2022-08-19T07:01:35;100496.78;;;26.86;60.77
7264;BME280;3673;52.480;13.348;2022-08-19T07:04:04;100487.34;;;26.93;61.11
7264;BME280;3673;52.480;13.348;2022-08-19T07:06:31;100478.41;;;26.92;60.56
7264;BME280;3673;52.480;13.348;2022-08-19T07:08:58;100478.16;;;27.08;60.37
7264;BME280;3673;52.480;13.348;2022-08-19T07:11:25;100469.06;;;26.98;60.69
7264;BME280;3673;52.480;13.348;2022-08-19T07:13:53;100463.75;;;27.09;60.49
7264;BME280;3673;52.480;13.348;2022-08-19T07:16:20;100467.66;;;27.29;59.97
7264;BME280;3673;52.480;13.348;2022-08-19T07:18:48;100455.03;;;27.18;59.83
7264;BME280;3673;52.480;13.348;2022-08-19T07:21:18;100467.56;;;26.94;60.85
7264;BME280;3673;52.480;13.348;2022-08-19T07:23:46;100472.91;;;27.06;60.59
7264;BME280;3673;52.480;13.348;2022-08-19T07:26:17;100472.44;;;27.12;60.28
7264;BME280;3673;52.480;13.348;2022-08-19T07:28:45;100478.91;;;27.10;60.55
7264;BME280;3673;52.480;13.348;2022-08-19T07:31:17;100483.34;;;27.22;60.00
7264;BME280;3673;52.480;13.348;2022-08-19T07:33:45;100491.03;;;27.39;59.87
7264;BME280;3673;52.480;13.348;2022-08-19T07:36:14;100496.63;;;27.12;59.80
7264;BME280;3673;52.480;13.348;2022-08-19T07:38:44;100504.16;;;27.44;59.23
7264;BME280;3673;52.480;13.348;2022-08-19T07:41:15;100509.38;;;27.58;58.90
7264;BME280;3673;52.480;13.348;2022-08-19T07:43:44;100506.53;;;27.48;59.26
7264;BME280;3673;52.480;13.348;2022-08-19T07:46:12;100513.53;;;27.38;59.57
7264;BME280;3673;52.480;13.348;2022-08-19T07:48:43;100512.91;;;27.22;59.92
7264;BME280;3673;52.480;13.348;2022-08-19T07:51:16;100504.28;;;27.30;59.81
7264;BME280;3673;52.480;13.348;2022-08-19T07:53:44;100507.59;;;27.46;59.67
7264;BME280;3673;52.480;13.348;2022-08-19T07:56:12;100511.78;;;27.50;59.48
7264;BME280;3673;52.480;13.348;2022-08-19T07:58:42;100518.16;;;27.60;59.25
7264;BME280;3673;52.480;13.348;2022-08-19T08:01:13;100523.31;;;27.63;59.39
7264;BME280;3673;52.480;13.348;2022-08-19T08:03:42;100522.03;;;27.45;59.60
7264;BME280;3673;52.480;13.348;2022-08-19T08:06:27;100522.69;;;27.59;59.52
7264;BME280;3673;52.480;13.348;2022-08-19T08:09:13;100531.22;;;27.53;59.48
7264;BME280;3673;52.480;13.348;2022-08-19T08:11:50;100528.66;;;27.39;60.19
7264;BME280;3673;52.480;13.348;2022-08-19T08:14:23;100538.16;;;27.45;59.93
7264;BME280;3673;52.480;13.348;2022-08-19T08:16:50;100542.53;;;26.97;61.23
7264;BME280;3673;52.480;13.348;2022-08-19T08:19:21;100542.28;;;27.12;61.33
7264;BME280;3673;52.480;13.348;2022-08-19T08:21:50;100540.00;;;27.32;60.66
7264;BME280;3673;52.480;13.348;2022-08-19T08:24:18;100545.63;;;27.40;60.56
7264;BME280;3673;52.480;13.348;2022-08-19T08:26:45;100560.91;;;27.52;60.17
7264;BME280;3673;52.480;13.348;2022-08-19T08:29:12;100557.75;;;27.58;59.73
7264;BME280;3673;52.480;13.348;2022-08-19T08:31:41;100554.25;;;27.32;60.57
7264;BME280;3673;52.480;13.348;2022-08-19T08:34:10;100555.53;;;27.52;60.05
7264;BME280;3673;52.480;13.348;2022-08-19T08:36:41;100557.13;;;27.54;59.63
7264;BME280;3673;52.480;13.348;2022-08-19T08:39:08;100550.19;;;27.63;59.52
7264;BME280;3673;52.480;13.348;2022-08-19T08:41:44;100553.75;;;27.63;59.94
7264;BME280;3673;52.480;13.348;2022-08-19T08:44:17;100547.97;;;27.57;60.24
7264;BME280;3673;52.480;13.348;2022-08-19T08:46:49;100558.50;;;27.60;60.07
7264;BME280;3673;52.480;13.348;2022-08-19T08:49:28;100565.81;;;27.58;59.88
7264;BME280;3673;52.480;13.348;2022-08-19T08:52:04;100568.78;;;27.66;59.78
7264;BME280;3673;52.480;13.348;2022-08-19T08:54:35;100565.19;;;27.54;60.26
7264;BME280;3673;52.480;13.348;2022-08-19T08:57:09;100556.91;;;27.57;59.77
7264;BME280;3673;52.480;13.348;2022-08-19T08:59:40;100561.94;;;27.62;59.81
7264;BME280;3673;52.480;13.348;2022-08-19T09:02:09;100558.81;;;27.55;59.90
7264;BME280;3673;52.480;13.348;2022-08-19T09:04:36;100567.34;;;27.49;60.02
7264;BME280;3673;52.480;13.348;2022-08-19T09:07:22;100572.19;;;27.08;61.09
7264;BME280;3673;52.480;13.348;2022-08-19T09:09:56;100563.69;;;26.63;62.63
7264;BME280;3673;52.480;13.348;2022-08-19T09:12:38;100570.97;;;26.24;63.74
7264;BME280;3673;52.480;13.348;2022-08-19T09:15:12;100565.19;;;26.42;63.73
7264;BME280;3673;52.480;13.348;2022-08-19T09:17:40;100547.81;;;26.86;62.03
7264;BME280;3673;52.480;13.348;2022-08-19T09:20:22;100552.44;;;27.33;60.87
7264;BME280;3673;52.480;13.348;2022-08-19T09:22:51;100561.53;;;27.43;60.80
7264;BME280;3673;52.480;13.348;2022-08-19T09:25:21;100546.66;;;27.62;59.60
7264;BME280;3673;52.480;13.348;2022-08-19T09:28:02;100548.09;;;27.43;60.28
7264;BME280;3673;52.480;13.348;2022-08-19T09:30:33;100547.66;;;27.73;59.21
7264;BME280;3673;52.480;13.348;2022-08-19T09:33:01;100556.09;;;27.92;59.18
7264;BME280;3673;52.480;13.348;2022-08-19T09:35:30;100546.00;;;27.35;60.65
7264;BME280;3673;52.480;13.348;2022-08-19T09:37:58;100542.31;;;27.36;61.15
7264;BME280;3673;52.480;13.348;2022-08-19T09:40:26;100548.09;;;27.43;61.12
7264;BME280;3673;52.480;13.348;2022-08-19T09:42:54;100545.50;;;27.54;60.59
7264;BME280;3673;52.480;13.348;2022-08-19T09:45:24;100545.75;;;27.75;60.01
7264;BME280;3673;52.480;13.348;2022-08-19T09:47:53;100544.13;;;27.72;59.87
7264;BME280;3673;52.480;13.348;2022-08-19T09:50:22;100537.31;;;27.32;61.11
7264;BME280;3673;52.480;13.348;2022-08-19T09:52:51;100542.03;;;27.28;61.17
7264;BME280;3673;52.480;13.348;2022-08-19T09:55:23;100544.72;;;27.28;61.39
7264;BME280;3673;52.480;13.348;2022-08-19T09:57:53;100541.06;;;26.55;62.95
7264;BME280;3673;52.480;13.348;2022-08-19T10:00:22;100552.97;;;26.51;63.99
7264;BME280;3673;52.480;13.348;2022-08-19T10:02:55;100553.59;;;26.67;63.80
7264;BME280;3673;52.480;13.348;2022-08-19T10:05:23;100548.66;;;27.11;62.64
7264;BME280;3673;52.480;13.348;2022-08-19T10:08:10;100556.16;;;27.43;61.28
7264;BME280;3673;52.480;13.348;2022-08-19T10:10:39;100551.00;;;27.52;60.68
7264;BME280;3673;52.480;13.348;2022-08-19T10:13:08;100546.09;;;27.34;61.41
7264;BME280;3673;52.480;13.348;2022-08-19T10:15:36;100548.22;;;26.80;62.97
7264;BME280;3673;52.480;13.348;2022-08-19T10:18:08;100549.09;;;26.80;63.58
7264;BME280;3673;52.480;13.348;2022-08-19T10:20:38;100539.44;;;26.78;63.52
7264;BME280;3673;52.480;13.348;2022-08-19T10:23:07;100522.16;;;26.94;63.06
7264;BME280;3673;52.480;13.348;2022-08-19T10:25:35;100537.06;;;26.98;62.64
7264;BME280;3673;52.480;13.348;2022-08-19T10:28:03;100537.56;;;27.52;61.13
7264;BME280;3673;52.480;13.348;2022-08-19T10:30:32;100536.41;;;27.91;59.54
7264;BME280;3673;52.480;13.348;2022-08-19T10:32:59;100540.81;;;28.27;58.83
7264;BME280;3673;52.480;13.348;2022-08-19T10:35:29;100533.47;;;28.29;58.00
7264;BME280;3673;52.480;13.348;2022-08-19T10:37:58;100525.44;;;28.51;56.96
7264;BME280;3673;52.480;13.348;2022-08-19T10:40:29;100535.19;;;28.30;57.76
7264;BME280;3673;52.480;13.348;2022-08-19T10:42:58;100547.16;;;27.44;60.32
7264;BME280;3673;52.480;13.348;2022-08-19T10:45:27;100546.16;;;27.57;60.37
7264;BME280;3673;52.480;13.348;2022-08-19T10:47:56;100544.03;;;27.01;61.74
7264;BME280;3673;52.480;13.348;2022-08-19T10:50:25;100549.88;;;27.31;61.14
7264;BME280;3673;52.480;13.348;2022-08-19T10:53:12;100547.66;;;27.12;61.00
7264;BME280;3673;52.480;13.348;2022-08-19T10:55:40;100548.78;;;26.97;61.79
7264;BME280;3673;52.480;13.348;2022-08-19T10:58:26;100547.38;;;26.67;63.29
7264;BME280;3673;52.480;13.348;2022-08-19T11:00:57;100548.34;;;26.53;63.44
7264;BME280;3673;52.480;13.348;2022-08-19T11:03:26;100539.22;;;26.93;62.51
7264;BME280;3673;52.480;13.348;2022-08-19T11:06:02;100543.28;;;27.11;61.77
7264;BME280;3673;52.480;13.348;2022-08-19T11:08:34;100553.66;;;27.29;61.21
7264;BME280;3673;52.480;13.348;2022-08-19T11:11:05;100552.22;;;26.87;61.88
7264;BME280;3673;52.480;13.348;2022-08-19T11:13:36;100558.34;;;26.63;62.36
7264;BME280;3673;52.480;13.348;2022-08-19T11:16:08;100553.41;;;26.83;61.67
7264;BME280;3673;52.480;13.348;2022-08-19T11:18:39;100557.03;;;26.56;62.72
7264;BME280;3673;52.480;13.348;2022-08-19T11:21:11;100572.94;;;26.59;62.88
7264;BME280;3673;52.480;13.348;2022-08-19T11:23:40;100555.66;;;26.51;62.70
7264;BME280;3673;52.480;13.348;2022-08-19T11:26:09;100558.63;;;26.21;64.04
7264;BME280;3673;52.480;13.348;2022-08-19T11:28:37;100566.47;;;26.37;63.87
7264;BME280;3673;52.480;13.348;2022-08-19T11:31:10;100568.44;;;26.47;63.33
7264;BME280;3673;52.480;13.348;2022-08-19T11:33:38;100567.78;;;26.31;64.48
7264;BME280;3673;52.480;13.348;2022-08-19T11:36:06;100562.63;;;26.41;64.15
7264;BME280;3673;52.480;13.348;2022-08-19T11:38:35;100569.50;;;26.57;63.43
7264;BME280;3673;52.480;13.348;2022-08-19T11:41:07;100559.31;;;26.75;63.23
7264;BME280;3673;52.480;13.348;2022-08-19T11:43:35;100571.13;;;26.98;62.06
7264;BME280;3673;52.480;13.348;2022-08-19T11:46:05;100568.47;;;26.85;62.51
7264;BME280;3673;52.480;13.348;2022-08-19T11:48:34;100574.34;;;26.78;62.58
7264;BME280;3673;52.480;13.348;2022-08-19T11:51:05;100563.81;;;26.75;62.83
7264;BME280;3673;52.480;13.348;2022-08-19T11:53:35;100567.56;;;26.59;63.02
7264;BME280;3673;52.480;13.348;2022-08-19T11:56:07;100575.53;;;26.61;63.38
7264;BME280;3673;52.480;13.348;2022-08-19T11:58:35;100577.78;;;26.67;62.78
7264;BME280;3673;52.480;13.348;2022-08-19T12:01:06;100582.06;;;26.44;63.81
7264;BME280;3673;52.480;13.348;2022-08-19T12:03:34;100590.66;;;26.75;62.86
7264;BME280;3673;52.480;13.348;2022-08-19T12:06:05;100594.59;;;26.44;63.39
7264;BME280;3673;52.480;13.348;2022-08-19T12:08:33;100597.63;;;26.65;63.27
7264;BME280;3673;52.480;13.348;2022-08-19T12:11:01;100596.34;;;26.83;62.41
7264;BME280;3673;52.480;13.348;2022-08-19T12:13:31;100591.31;;;26.78;62.37
7264;BME280;3673;52.480;13.348;2022-08-19T12:15:58;100596.56;;;27.05;61.70
7264;BME280;3673;52.480;13.348;2022-08-19T12:18:26;100600.75;;;27.22;60.85
7264;BME280;3673;52.480;13.348;2022-08-19T12:20:54;100604.50;;;26.69;62.79
7264;BME280;3673;52.480;13.348;2022-08-19T12:23:22;100603.88;;;26.65;62.82
7264;BME280;3673;52.480;13.348;2022-08-19T12:25:50;100603.44;;;26.58;62.83
7264;BME280;3673;52.480;13.348;2022-08-19T12:28:19;100601.81;;;26.56;63.06
7264;BME280;3673;52.480;13.348;2022-08-19T12:30:50;100606.28;;;26.43;63.53
7264;BME280;3673;52.480;13.348;2022-08-19T12:33:19;100606.72;;;26.37;63.50
7264;BME280;3673;52.480;13.348;2022-08-19T12:35:50;100606.19;;;26.32;63.83
7264;BME280;3673;52.480;13.348;2022-08-19T12:38:18;100607.94;;;26.58;63.01
7264;BME280;3673;52.480;13.348;2022-08-19T12:40:47;100609.59;;;26.98;61.43
7264;BME280;3673;52.480;13.348;2022-08-19T12:43:15;100598.84;;;26.98;59.97
7264;BME280;3673;52.480;13.348;2022-08-19T12:45:42;100595.31;;;27.47;58.93
7264;BME280;3673;52.480;13.348;2022-08-19T12:48:12;100603.19;;;27.25;59.00
7264;BME280;3673;52.480;13.348;2022-08-19T12:50:40;100598.34;;;27.30;58.74
7264;BME280;3673;52.480;13.348;2022-08-19T12:53:07;100607.50;;;27.27;58.63
7264;BME280;3673;52.480;13.348;2022-08-19T12:55:35;100594.09;;;26.64;61.02
7264;BME280;3673;52.480;13.348;2022-08-19T12:58:02;100604.06;;;27.25;59.25
7264;BME280;3673;52.480;13.348;2022-08-19T13:00:30;100590.13;;;27.07;59.40
7264;BME280;3673;52.480;13.348;2022-08-19T13:02:59;100590.72;;;27.24;59.06
7264;BME280;3673;52.480;13.348;2022-08-19T13:05:31;100587.47;;;26.95;59.70
7264;BME280;3673;52.480;13.348;2022-08-19T13:08:00;100589.91;;;27.10;59.84
7264;BME280;3673;52.480;13.348;2022-08-19T13:10:30;100600.19;;;27.89;57.40
7264;BME280;3673;52.480;13.348;2022-08-19T13:13:03;100605.16;;;28.30;55.99